sensor_id;sensor_type;location;lat;lon;timestamp;pressure;altitude;pressure_sealevel;temperature
15360;BMP280;7779;49.596;11.070;2023-09-19T14:37:00;98113.31;;;21.00
15360;BMP280;7779;49.596;11.070;2023-09-19T14:39:26;98103.72;;;21.54
15360;BMP280;7779;49.596;11.070;2023-09-19T14:41:52;98098.28;;;22.08
15360;BMP280;7779;49.596;11.070;2023-09-19T14:44:18;98101.19;;;22.55
15360;BMP280;7779;49.596;11.070;2023-09-19T14:46:45;98094.63;;;22.96
15360;BMP280;7779;49.596;11.070;2023-09-19T14:49:11;98083.66;;;23.31
15360;BMP280;7779;49.596;11.070;2023-09-19T14:51:38;98084.63;;;23.61
15360;BMP280;7779;49.596;11.070;2023-09-19T14:54:07;98082.91;;;23.85
15360;BMP280;7779;49.596;11.070;2023-09-19T14:56:33;98078.66;;;24.05
15360;BMP280;7779;49.596;11.070;2023-09-19T14:59:00;98071.84;;;24.22
15360;BMP280;7779;49.596;11.070;2023-09-19T15:01:26;98077.78;;;24.34
15360;BMP280;7779;49.596;11.070;2023-09-19T15:03:51;98070.97;;;24.43
15360;BMP280;7779;49.596;11.070;2023-09-19T15:06:19;98066.66;;;24.51
15360;BMP280;7779;49.596;11.070;2023-09-19T15:08:47;98070.94;;;24.60
15360;BMP280;7779;49.596;11.070;2023-09-19T15:11:14;98069.22;;;24.63
15360;BMP280;7779;49.596;11.070;2023-09-19T15:13:43;98070.03;;;24.68
15360;BMP280;7779;49.596;11.070;2023-09-19T15:16:10;98071.75;;;24.69
15360;BMP280;7779;49.596;11.070;2023-09-19T15:18:44;98070.88;;;24.72
15360;BMP280;7779;49.596;11.070;2023-09-19T15:21:11;98070.03;;;24.71
15360;BMP280;7779;49.596;11.070;2023-09-19T15:23:39;98078.56;;;24.72
15360;BMP280;7779;49.596;11.070;2023-09-19T15:26:11;98070.88;;;24.72
15360;BMP280;7779;49.596;11.070;2023-09-19T15:28:38;98064.06;;;24.71
15360;BMP280;7779;49.596;11.070;2023-09-19T15:31:12;98068.31;;;24.72
15360;BMP280;7779;49.596;11.070;2023-09-19T15:33:39;98070.03;;;24.70
15360;BMP280;7779;49.596;11.070;2023-09-19T15:36:13;98061.50;;;24.69
15360;BMP280;7779;49.596;11.070;2023-09-19T15:39:05;98060.66;;;24.69
15360;BMP280;7779;49.596;11.070;2023-09-19T15:41:44;98055.53;;;24.63
15360;BMP280;7779;49.596;11.070;2023-09-19T15:44:18;98064.09;;;24.62
15360;BMP280;7779;49.596;11.070;2023-09-19T15:46:45;98057.25;;;24.59
15360;BMP280;7779;49.596;11.070;2023-09-19T15:49:11;98055.56;;;24.57
15360;BMP280;7779;49.596;11.070;2023-09-19T15:51:38;98060.69;;;24.57
15360;BMP280;7779;49.596;11.070;2023-09-19T15:54:13;98058.97;;;24.56
15360;BMP280;7779;49.596;11.070;2023-09-19T15:56:41;98060.69;;;24.55
15360;BMP280;7779;49.596;11.070;2023-09-19T15:59:07;98059.84;;;24.55
15360;BMP280;7779;49.596;11.070;2023-09-19T16:01:34;98064.94;;;24.53
15360;BMP280;7779;49.596;11.070;2023-09-19T16:04:00;98063.28;;;24.51
15360;BMP280;7779;49.596;11.070;2023-09-19T16:06:30;98066.66;;;24.50
15360;BMP280;7779;49.596;11.070;2023-09-19T16:08:59;98063.25;;;24.49
15360;BMP280;7779;49.596;11.070;2023-09-19T16:11:32;98070.09;;;24.47
15360;BMP280;7779;49.596;11.070;2023-09-19T16:13:58;98064.13;;;24.44
15360;BMP280;7779;49.596;11.070;2023-09-19T16:16:25;98069.25;;;24.41
15360;BMP280;7779;49.596;11.070;2023-09-19T16:18:59;98065.84;;;24.39
15360;BMP280;7779;49.596;11.070;2023-09-19T16:21:27;98066.72;;;24.33
15360;BMP280;7779;49.596;11.070;2023-09-19T16:23:58;98073.53;;;24.29
15360;BMP280;7779;49.596;11.070;2023-09-19T16:26:26;98076.09;;;24.24
15360;BMP280;7779;49.596;11.070;2023-09-19T16:28:55;98070.94;;;24.20
15360;BMP280;7779;49.596;11.070;2023-09-19T16:31:30;98069.25;;;24.14
15360;BMP280;7779;49.596;11.070;2023-09-19T16:33:57;98067.56;;;24.10
15360;BMP280;7779;49.596;11.070;2023-09-19T16:36:25;98064.13;;;24.05
15360;BMP280;7779;49.596;11.070;2023-09-19T16:38:51;98060.75;;;24.00
15360;BMP280;7779;49.596;11.070;2023-09-19T16:41:18;98063.28;;;23.94
15360;BMP280;7779;49.596;11.070;2023-09-19T16:43:45;98064.16;;;23.89
15360;BMP280;7779;49.596;11.070;2023-09-19T16:46:12;98064.16;;;23.85
15360;BMP280;7779;49.596;11.070;2023-09-19T16:48:40;98065.84;;;23.80
15360;BMP280;7779;49.596;11.070;2023-09-19T16:51:09;98069.28;;;23.74
15360;BMP280;7779;49.596;11.070;2023-09-19T16:53:36;98071.81;;;23.67
15360;BMP280;7779;49.596;11.070;2023-09-19T16:56:11;98070.97;;;23.62
15360;BMP280;7779;49.596;11.070;2023-09-19T16:58:45;98066.66;;;23.55
15360;BMP280;7779;49.596;11.070;2023-09-19T17:01:13;98077.75;;;23.48
15360;BMP280;7779;49.596;11.070;2023-09-19T17:03:43;98071.75;;;23.42
15360;BMP280;7779;49.596;11.070;2023-09-19T17:06:11;98075.13;;;23.35
15360;BMP280;7779;49.596;11.070;2023-09-19T17:08:41;98082.78;;;23.27
15360;BMP280;7779;49.596;11.070;2023-09-19T17:11:11;98075.09;;;23.20
15360;BMP280;7779;49.596;11.070;2023-09-19T17:13:41;98084.44;;;23.13
15360;BMP280;7779;49.596;11.070;2023-09-19T17:16:12;98086.97;;;23.06
15360;BMP280;7779;49.596;11.070;2023-09-19T17:18:40;98083.53;;;22.97
15360;BMP280;7779;49.596;11.070;2023-09-19T17:21:09;98079.25;;;22.88
15360;BMP280;7779;49.596;11.070;2023-09-19T17:23:38;98082.59;;;22.80
15360;BMP280;7779;49.596;11.070;2023-09-19T17:26:11;98086.78;;;22.72
15360;BMP280;7779;49.596;11.070;2023-09-19T17:28:37;98080.78;;;22.61
15360;BMP280;7779;49.596;11.070;2023-09-19T17:31:11;98083.28;;;22.54
15360;BMP280;7779;49.596;11.070;2023-09-19T17:33:38;98085.78;;;22.43
15360;BMP280;7779;49.596;11.070;2023-09-19T17:36:16;98084.88;;;22.34
15360;BMP280;7779;49.596;11.070;2023-09-19T17:38:46;98085.66;;;22.23
15360;BMP280;7779;49.596;11.070;2023-09-19T17:41:12;98088.13;;;22.14
15360;BMP280;7779;49.596;11.070;2023-09-19T17:43:46;98080.38;;;22.03
15360;BMP280;7779;49.596;11.070;2023-09-19T17:46:19;98085.38;;;21.93
15360;BMP280;7779;49.596;11.070;2023-09-19T17:48:52;98087.00;;;21.84
15360;BMP280;7779;49.596;11.070;2023-09-19T17:51:18;98092.91;;;21.74
15360;BMP280;7779;49.596;11.070;2023-09-19T17:53:46;98089.41;;;21.66
15360;BMP280;7779;49.596;11.070;2023-09-19T17:56:14;98085.91;;;21.56
15360;BMP280;7779;49.596;11.070;2023-09-19T17:58:45;98085.81;;;21.48
15360;BMP280;7779;49.596;11.070;2023-09-19T18:01:18;98095.91;;;21.39
15360;BMP280;7779;49.596;11.070;2023-09-19T18:03:49;98086.47;;;21.29
15360;BMP280;7779;49.596;11.070;2023-09-19T18:06:26;98099.09;;;21.20
15360;BMP280;7779;49.596;11.070;2023-09-19T18:08:52;98096.44;;;21.11
15360;BMP280;7779;49.596;11.070;2023-09-19T18:11:18;98101.47;;;21.04
15360;BMP280;7779;49.596;11.070;2023-09-19T18:13:47;98108.16;;;20.97
15360;BMP280;7779;49.596;11.070;2023-09-19T18:16:15;98108.94;;;20.89
15360;BMP280;7779;49.596;11.070;2023-09-19T18:18:45;98111.34;;;20.80
15360;BMP280;7779;49.596;11.070;2023-09-19T18:21:15;98116.31;;;20.73
15360;BMP280;7779;49.596;11.070;2023-09-19T18:23:40;98127.28;;;20.66
15360;BMP280;7779;49.596;11.070;2023-09-19T18:26:06;98122.06;;;20.58
15360;BMP280;7779;49.596;11.070;2023-09-19T18:28:35;98127.88;;;20.50
15360;BMP280;7779;49.596;11.070;2023-09-19T18:31:07;98126.06;;;20.43
15360;BMP280;7779;49.596;11.070;2023-09-19T18:33:34;98122.53;;;20.34
15360;BMP280;7779;49.596;11.070;2023-09-19T18:36:03;98125.81;;;20.27
15360;BMP280;7779;49.596;11.070;2023-09-19T18:38:29;98129.94;;;20.19
15360;BMP280;7779;49.596;11.070;2023-09-19T18:40:55;98133.22;;;20.12
15360;BMP280;7779;49.596;11.070;2023-09-19T18:43:21;98134.75;;;20.04
15360;BMP280;7779;49.596;11.070;2023-09-19T18:45:57;98137.25;;;19.99
15360;BMP280;7779;49.596;11.070;2023-09-19T18:48:23;98143.06;;;19.93
15360;BMP280;7779;49.596;11.070;2023-09-19T18:50:50;98144.63;;;19.85
15360;BMP280;7779;49.596;11.070;2023-09-19T18:53:17;98142.81;;;19.79
15360;BMP280;7779;49.596;11.070;2023-09-19T18:55:44;98149.44;;;19.73
15360;BMP280;7779;49.596;11.070;2023-09-19T18:58:11;98148.47;;;19.65
15360;BMP280;7779;49.596;11.070;2023-09-19T19:00:37;98150.88;;;19.59
15360;BMP280;7779;49.596;11.070;2023-09-19T19:03:03;98148.25;;;19.53
15360;BMP280;7779;49.596;11.070;2023-09-19T19:05:34;98151.50;;;19.46
15360;BMP280;7779;49.596;11.070;2023-09-19T19:08:03;98163.25;;;19.41
15360;BMP280;7779;49.596;11.070;2023-09-19T19:10:29;98158.91;;;19.36
15360;BMP280;7779;49.596;11.070;2023-09-19T19:12:55;98158.78;;;19.30
15360;BMP280;7779;49.596;11.070;2023-09-19T19:15:22;98164.63;;;19.24
15360;BMP280;7779;49.596;11.070;2023-09-19T19:17:49;98159.50;;;19.21
15360;BMP280;7779;49.596;11.070;2023-09-19T19:20:15;98161.88;;;19.16
15360;BMP280;7779;49.596;11.070;2023-09-19T19:22:43;98166.00;;;19.11
15360;BMP280;7779;49.596;11.070;2023-09-19T19:25:09;98165.94;;;19.06
15360;BMP280;7779;49.596;11.070;2023-09-19T19:27:35;98179.38;;;19.01
15360;BMP280;7779;49.596;11.070;2023-09-19T19:30:01;98182.63;;;18.97
15360;BMP280;7779;49.596;11.070;2023-09-19T19:32:26;98177.44;;;18.91
15360;BMP280;7779;49.596;11.070;2023-09-19T19:34:53;98182.38;;;18.85
15360;BMP280;7779;49.596;11.070;2023-09-19T19:37:21;98188.16;;;18.79
15360;BMP280;7779;49.596;11.070;2023-09-19T19:39:46;98177.88;;;18.74
15360;BMP280;7779;49.596;11.070;2023-09-19T19:42:13;98197.25;;;18.70
15360;BMP280;7779;49.596;11.070;2023-09-19T19:44:40;98196.28;;;18.65
15360;BMP280;7779;49.596;11.070;2023-09-19T19:47:05;98197.88;;;18.60
15360;BMP280;7779;49.596;11.070;2023-09-19T19:49:31;98194.38;;;18.55
15360;BMP280;7779;49.596;11.070;2023-09-19T19:51:58;98195.91;;;18.49
15360;BMP280;7779;49.596;11.070;2023-09-19T19:54:24;98192.41;;;18.44
15360;BMP280;7779;49.596;11.070;2023-09-19T19:56:49;98199.91;;;18.39
15360;BMP280;7779;49.596;11.070;2023-09-19T19:59:15;98193.84;;;18.33
15360;BMP280;7779;49.596;11.070;2023-09-19T20:01:43;98196.28;;;18.29
15360;BMP280;7779;49.596;11.070;2023-09-19T20:04:09;98202.91;;;18.24
15360;BMP280;7779;49.596;11.070;2023-09-19T20:06:36;98198.50;;;18.17
15360;BMP280;7779;49.596;11.070;2023-09-19T20:09:01;98211.13;;;18.14
15360;BMP280;7779;49.596;11.070;2023-09-19T20:11:27;98207.63;;;18.09
15360;BMP280;7779;49.596;11.070;2023-09-19T20:13:56;98199.84;;;18.04
15360;BMP280;7779;49.596;11.070;2023-09-19T20:16:24;98200.56;;;17.99
15360;BMP280;7779;49.596;11.070;2023-09-19T20:18:59;98205.53;;;17.95
15360;BMP280;7779;49.596;11.070;2023-09-19T20:21:26;98200.34;;;17.90
15360;BMP280;7779;49.596;11.070;2023-09-19T20:23:51;98201.91;;;17.85
15360;BMP280;7779;49.596;11.070;2023-09-19T20:26:18;98200.13;;;17.81
15360;BMP280;7779;49.596;11.070;2023-09-19T20:28:44;98197.44;;;17.77
15360;BMP280;7779;49.596;11.070;2023-09-19T20:31:12;98199.88;;;17.72
15360;BMP280;7779;49.596;11.070;2023-09-19T20:33:40;98198.84;;;17.66
15360;BMP280;7779;49.596;11.070;2023-09-19T20:36:08;98204.69;;;17.63
15360;BMP280;7779;49.596;11.070;2023-09-19T20:38:35;98203.72;;;17.59
15360;BMP280;7779;49.596;11.070;2023-09-19T20:41:09;98210.38;;;17.55
15360;BMP280;7779;49.596;11.070;2023-09-19T20:43:35;98207.72;;;17.51
15360;BMP280;7779;49.596;11.070;2023-09-19T20:46:07;98200.03;;;17.48
15360;BMP280;7779;49.596;11.070;2023-09-19T20:48:34;98196.50;;;17.43
15360;BMP280;7779;49.596;11.070;2023-09-19T20:51:06;98194.75;;;17.40
15360;BMP280;7779;49.596;11.070;2023-09-19T20:53:39;98206.44;;;17.35
15360;BMP280;7779;49.596;11.070;2023-09-19T20:56:06;98208.03;;;17.32
15360;BMP280;7779;49.596;11.070;2023-09-19T20:58:35;98199.47;;;17.28
15360;BMP280;7779;49.596;11.070;2023-09-19T21:01:02;98203.59;;;17.25
15360;BMP280;7779;49.596;11.070;2023-09-19T21:03:31;98208.50;;;17.19
15360;BMP280;7779;49.596;11.070;2023-09-19T21:06:02;98207.53;;;17.16
15360;BMP280;7779;49.596;11.070;2023-09-19T21:08:30;98212.47;;;17.11
15360;BMP280;7779;49.596;11.070;2023-09-19T21:11:14;98211.47;;;17.06
15360;BMP280;7779;49.596;11.070;2023-09-19T21:13:42;98210.47;;;17.01
15360;BMP280;7779;49.596;11.070;2023-09-19T21:16:09;98220.47;;;16.97
15360;BMP280;7779;49.596;11.070;2023-09-19T21:18:43;98208.50;;;16.91
15360;BMP280;7779;49.596;11.070;2023-09-19T21:21:09;98213.56;;;16.91
15360;BMP280;7779;49.596;11.070;2023-09-19T21:23:37;98210.88;;;16.87
15360;BMP280;7779;49.596;11.070;2023-09-19T21:26:03;98207.41;;;16.83
15360;BMP280;7779;49.596;11.070;2023-09-19T21:28:29;98209.84;;;16.81
15360;BMP280;7779;49.596;11.070;2023-09-19T21:31:05;98208.94;;;16.79
15360;BMP280;7779;49.596;11.070;2023-09-19T21:33:37;98213.06;;;16.75
15360;BMP280;7779;49.596;11.070;2023-09-19T21:36:04;98210.47;;;16.74
15360;BMP280;7779;49.596;11.070;2023-09-19T21:38:35;98218.78;;;16.70
15360;BMP280;7779;49.596;11.070;2023-09-19T21:41:13;98215.34;;;16.68
15360;BMP280;7779;49.596;11.070;2023-09-19T21:43:40;98217.72;;;16.63
15360;BMP280;7779;49.596;11.070;2023-09-19T21:46:06;98220.22;;;16.62
15360;BMP280;7779;49.596;11.070;2023-09-19T21:48:33;98214.16;;;16.57
15360;BMP280;7779;49.596;11.070;2023-09-19T21:51:00;98210.72;;;16.55
15360;BMP280;7779;49.596;11.070;2023-09-19T21:53:26;98203.06;;;16.52
15360;BMP280;7779;49.596;11.070;2023-09-19T21:55:58;98206.28;;;16.48
15360;BMP280;7779;49.596;11.070;2023-09-19T21:58:30;98203.66;;;16.45
15360;BMP280;7779;49.596;11.070;2023-09-19T22:00:58;98201.88;;;16.42
15360;BMP280;7779;49.596;11.070;2023-09-19T22:03:26;98205.97;;;16.38
15360;BMP280;7779;49.596;11.070;2023-09-19T22:05:52;98200.84;;;16.36
15360;BMP280;7779;49.596;11.070;2023-09-19T22:08:18;98197.41;;;16.34
15360;BMP280;7779;49.596;11.070;2023-09-19T22:10:48;98194.00;;;16.32
15360;BMP280;7779;49.596;11.070;2023-09-19T22:13:17;98189.69;;;16.30
15360;BMP280;7779;49.596;11.070;2023-09-19T22:15:50;98188.69;;;16.25
15360;BMP280;7779;49.596;11.070;2023-09-19T22:18:20;98196.22;;;16.23
15360;BMP280;7779;49.596;11.070;2023-09-19T22:20:50;98190.25;;;16.21
15360;BMP280;7779;49.596;11.070;2023-09-19T22:23:19;98198.50;;;16.17
15360;BMP280;7779;49.596;11.070;2023-09-19T22:25:51;98192.53;;;16.15
15360;BMP280;7779;49.596;11.070;2023-09-19T22:28:18;98199.22;;;16.13
15360;BMP280;7779;49.596;11.070;2023-09-19T22:30:44;98196.63;;;16.10
15360;BMP280;7779;49.596;11.070;2023-09-19T22:33:18;98201.56;;;16.07
15360;BMP280;7779;49.596;11.070;2023-09-19T22:35:46;98210.75;;;16.05
15360;BMP280;7779;49.596;11.070;2023-09-19T22:38:14;98200.53;;;16.02
15360;BMP280;7779;49.596;11.070;2023-09-19T22:40:41;98198.84;;;16.02
15360;BMP280;7779;49.596;11.070;2023-09-19T22:43:11;98203.84;;;16.00
15360;BMP280;7779;49.596;11.070;2023-09-19T22:45:41;98198.69;;;15.97
15360;BMP280;7779;49.596;11.070;2023-09-19T22:48:07;98202.81;;;15.95
15360;BMP280;7779;49.596;11.070;2023-09-19T22:50:34;98210.34;;;15.94
15360;BMP280;7779;49.596;11.070;2023-09-19T22:53:06;98210.28;;;15.92
15360;BMP280;7779;49.596;11.070;2023-09-19T22:55:37;98213.66;;;15.91
15360;BMP280;7779;49.596;11.070;2023-09-19T22:58:08;98207.63;;;15.88
15360;BMP280;7779;49.596;11.070;2023-09-19T23:00:37;98214.28;;;15.86
15360;BMP280;7779;49.596;11.070;2023-09-19T23:03:08;98221.75;;;15.83
15360;BMP280;7779;49.596;11.070;2023-09-19T23:05:43;98223.38;;;15.81
15360;BMP280;7779;49.596;11.070;2023-09-19T23:08:10;98226.72;;;15.80
15360;BMP280;7779;49.596;11.070;2023-09-19T23:13:06;98224.88;;;15.76
15360;BMP280;7779;49.596;11.070;2023-09-19T23:15:39;98224.03;;;15.75
15360;BMP280;7779;49.596;11.070;2023-09-19T23:18:05;98227.31;;;15.73
15360;BMP280;7779;49.596;11.070;2023-09-19T23:20:39;98235.69;;;15.72
15360;BMP280;7779;49.596;11.070;2023-09-19T23:23:05;98228.88;;;15.69
15360;BMP280;7779;49.596;11.070;2023-09-19T23:25:40;98225.41;;;15.66
15360;BMP280;7779;49.596;11.070;2023-09-19T23:28:06;98232.91;;;15.64
15360;BMP280;7779;49.596;11.070;2023-09-19T23:30:32;98237.91;;;15.63
15360;BMP280;7779;49.596;11.070;2023-09-19T23:32:59;98239.53;;;15.61
15360;BMP280;7779;49.596;11.070;2023-09-19T23:35:26;98236.91;;;15.58
15360;BMP280;7779;49.596;11.070;2023-09-19T23:37:55;98243.53;;;15.56
15360;BMP280;7779;49.596;11.070;2023-09-19T23:40:23;98240.94;;;15.53
15360;BMP280;7779;49.596;11.070;2023-09-19T23:42:52;98245.06;;;15.51
15360;BMP280;7779;49.596;11.070;2023-09-19T23:45:18;98246.69;;;15.49
15360;BMP280;7779;49.596;11.070;2023-09-19T23:47:49;98248.31;;;15.47
15360;BMP280;7779;49.596;11.070;2023-09-19T23:50:16;98243.13;;;15.44
15360;BMP280;7779;49.596;11.070;2023-09-19T23:52:43;98242.28;;;15.44
15360;BMP280;7779;49.596;11.070;2023-09-19T23:55:09;98241.34;;;15.42
15360;BMP280;7779;49.596;11.070;2023-09-19T23:57:41;98241.31;;;15.40
